Time;durP1;ratioP1;P1;durP2;ratioP2;P2;SDS_P1;SDS_P2;PMS_P1;PMS_P2;Temp;Humidity;BMP_temperature;BMP_pressure;BME280_temperature;BME280_humidity;BME280_pressure;Samples;Min_cycle;Max_cycle;Signal;HPM_P1;HPM_P2
2021/04/19 00:01:05;;;;;;;11.98;10.63;;;10.60;99.90;;;;;;5042236;28;20052;-75
2021/04/19 00:03:31;;;;;;;13.00;9.95;;;10.60;99.90;;;;;;5047864;28;20083;-75
2021/04/19 00:05:57;;;;;;;11.57;9.93;;;10.60;99.90;;;;;;5034304;28;20037;-75
2021/04/19 00:08:24;;;;;;;13.35;11.30;;;10.60;99.90;;;;;;5033550;28;20052;-75
2021/04/19 00:10:50;;;;;;;12.90;10.40;;;10.60;99.90;;;;;;5035791;28;20021;-74
2021/04/19 00:13:16;;;;;;;12.55;10.57;;;10.60;99.90;;;;;;5030405;28;20117;-74
2021/04/19 00:15:41;;;;;;;10.95;9.85;;;10.60;99.90;;;;;;5043694;28;20116;-74
2021/04/19 00:18:07;;;;;;;12.05;10.93;;;10.60;99.90;;;;;;5038565;28;20056;-74
2021/04/19 00:20:34;;;;;;;11.27;9.98;;;10.60;99.90;;;;;;5023970;28;20028;-74
2021/04/19 00:23:00;;;;;;;14.13;11.95;;;10.60;99.90;;;;;;5051432;28;20021;-75
2021/04/19 00:25:26;;;;;;;12.25;11.00;;;10.60;99.90;;;;;;5038109;28;20160;-74
2021/04/19 00:27:52;;;;;;;11.57;9.45;;;10.60;99.90;;;;;;5043595;28;20033;-74
2021/04/19 00:30:19;;;;;;;13.73;10.95;;;10.60;99.90;;;;;;5039408;28;20030;-74
2021/04/19 00:32:45;;;;;;;11.55;10.23;;;10.60;99.90;;;;;;5031176;28;20408;-74
2021/04/19 00:35:11;;;;;;;10.68;9.55;;;10.60;99.90;;;;;;5046134;28;20037;-75
2021/04/19 00:37:37;;;;;;;12.50;9.85;;;10.60;99.90;;;;;;5042214;28;20395;-74
2021/04/19 00:40:14;;;;;;;10.45;9.35;;;10.70;99.90;;;;;;5019721;28;20029;-75
2021/04/19 00:42:41;;;;;;;12.48;10.82;;;10.70;99.90;;;;;;5040727;28;20450;-74
2021/04/19 00:45:09;;;;;;;11.18;10.07;;;10.70;99.90;;;;;;5031956;28;20415;-75
2021/04/19 00:47:36;;;;;;;12.40;10.52;;;10.70;99.90;;;;;;5029307;28;20115;-74
2021/04/19 00:50:09;;;;;;;10.43;9.45;;;10.70;99.90;;;;;;5020453;28;20036;-75
2021/04/19 00:52:35;;;;;;;10.38;9.27;;;10.80;99.90;;;;;;5030445;28;20032;-75
2021/04/19 00:55:02;;;;;;;9.95;8.63;;;10.70;99.90;;;;;;5033861;28;20491;-74
2021/04/19 00:57:30;;;;;;;9.85;8.90;;;10.70;99.90;;;;;;5019966;28;20028;-74
2021/04/19 00:59:55;;;;;;;13.10;9.73;;;10.70;99.90;;;;;;5020893;28;20033;-73
2021/04/19 01:02:21;;;;;;;11.38;10.20;;;10.70;99.90;;;;;;5036543;28;20070;-73
2021/04/19 01:04:47;;;;;;;11.75;9.93;;;10.60;99.90;;;;;;5038852;28;20045;-74
2021/04/19 01:07:13;;;;;;;11.07;10.02;;;10.60;99.90;;;;;;5033945;28;20029;-74
2021/04/19 01:09:39;;;;;;;11.35;9.00;;;10.60;99.90;;;;;;5018604;28;20511;-74
2021/04/19 01:12:05;;;;;;;10.60;9.00;;;10.60;99.90;;;;;;5020096;28;20029;-75
2021/04/19 01:14:30;;;;;;;10.95;9.88;;;10.50;99.90;;;;;;5021442;28;20084;-75
2021/04/19 01:16:56;;;;;;;10.43;8.95;;;10.50;99.90;;;;;;5021710;28;20025;-76
2021/04/19 01:19:22;;;;;;;11.15;10.00;;;10.40;99.90;;;;;;5048391;28;20063;-75
2021/04/19 01:21:48;;;;;;;11.50;10.30;;;10.40;99.90;;;;;;5030033;28;20045;-74
2021/04/19 01:24:13;;;;;;;13.40;8.80;;;10.50;99.90;;;;;;5041971;28;20093;-74
2021/04/19 01:26:39;;;;;;;11.13;9.77;;;10.50;99.90;;;;;;5040503;28;20029;-75
2021/04/19 01:29:05;;;;;;;10.88;9.77;;;10.50;99.90;;;;;;5039701;28;20025;-76
2021/04/19 01:31:31;;;;;;;11.52;10.35;;;10.40;99.90;;;;;;5033246;28;20028;-74
2021/04/19 01:33:56;;;;;;;11.23;10.07;;;10.40;99.90;;;;;;5034545;28;20399;-75
2021/04/19 01:36:23;;;;;;;12.50;10.50;;;10.40;99.90;;;;;;5022181;28;20018;-75
2021/04/19 01:38:50;;;;;;;12.63;11.40;;;10.50;99.90;;;;;;5039497;28;20029;-75
2021/04/19 01:41:16;;;;;;;12.20;10.32;;;10.40;99.90;;;;;;5038746;28;20418;-74
2021/04/19 01:43:41;;;;;;;12.70;11.38;;;10.40;99.90;;;;;;5020619;28;20033;-74
2021/04/19 01:46:07;;;;;;;15.23;10.77;;;10.40;99.90;;;;;;5040455;28;20029;-74
2021/04/19 01:48:33;;;;;;;12.63;11.20;;;10.40;99.90;;;;;;5037779;28;20041;-73
2021/04/19 01:50:59;;;;;;;12.40;11.20;;;10.40;99.90;;;;;;5014076;28;20029;-74
2021/04/19 01:53:25;;;;;;;14.05;12.60;;;10.50;99.90;;;;;;5033936;28;20021;-74
2021/04/19 01:55:51;;;;;;;11.45;10.35;;;10.40;99.90;;;;;;5020997;28;20515;-75
2021/04/19 01:58:24;;;;;;;11.73;10.50;;;10.40;99.90;;;;;;5027424;28;20557;-74
2021/04/19 02:01:00;;;;;;;17.77;11.18;;;10.30;99.90;;;;;;5038276;28;20030;-73
2021/04/19 02:03:51;;;;;;;12.73;10.95;;;10.30;99.90;;;;;;5030966;28;20102;-75
2021/04/19 02:06:38;;;;;;;15.02;11.52;;;10.30;99.90;;;;;;5048186;28;20146;-75
2021/04/19 02:09:16;;;;;;;12.63;11.30;;;10.30;99.90;;;;;;5056173;28;20084;-75
2021/04/19 02:11:51;;;;;;;12.70;11.40;;;10.20;99.90;;;;;;5053031;28;20040;-77
2021/04/19 02:14:42;;;;;;;12.65;11.32;;;10.20;99.90;;;;;;5043472;28;20021;-75
2021/04/19 02:17:23;;;;;;;12.68;11.48;;;10.30;99.90;;;;;;5058928;28;20021;-75
2021/04/19 02:20:08;;;;;;;13.33;12.03;;;10.20;99.90;;;;;;5055331;28;20487;-74
2021/04/19 02:22:58;;;;;;;11.95;10.68;;;10.20;99.90;;;;;;5019245;28;20463;-76
2021/04/19 02:25:31;;;;;;;13.50;11.38;;;10.10;99.90;;;;;;5018152;28;20041;-75
2021/04/19 02:28:07;;;;;;;;;;;10.10;99.90;;;;;;5036101;28;20310;-75
2021/04/19 02:30:37;;;;;;;12.55;11.05;;;10.10;99.90;;;;;;5035919;28;19941;-75
2021/04/19 02:33:06;;;;;;;12.05;10.88;;;10.10;99.90;;;;;;5046549;28;20483;-75
2021/04/19 02:35:34;;;;;;;11.90;10.68;;;10.20;99.90;;;;;;5056198;28;20029;-76
2021/04/19 02:38:02;;;;;;;15.32;11.88;;;10.10;99.90;;;;;;5055857;28;20017;-74
2021/04/19 02:40:29;;;;;;;10.00;9.00;;;10.10;99.90;;;;;;5036557;28;20039;-75
2021/04/19 02:42:56;;;;;;;10.52;9.45;;;10.10;99.90;;;;;;5047495;28;20028;-76
2021/04/19 02:45:23;;;;;;;10.52;8.55;;;10.10;99.90;;;;;;5033110;28;20022;-75
2021/04/19 02:47:51;;;;;;;11.60;10.50;;;10.10;99.90;;;;;;5045195;28;20025;-74
2021/04/19 02:50:21;;;;;;;10.20;8.98;;;10.20;99.90;;;;;;5045197;28;20040;-74
2021/04/19 02:52:49;;;;;;;12.02;9.52;;;10.10;99.90;;;;;;5025376;28;20430;-74
2021/04/19 02:55:18;;;;;;;10.73;9.70;;;10.10;99.90;;;;;;5052948;28;20029;-74
2021/04/19 02:57:53;;;;;;;10.32;9.23;;;10.10;99.90;;;;;;5025548;28;20485;-74
2021/04/19 03:00:25;;;;;;;13.05;10.38;;;10.10;99.90;;;;;;5064317;28;20018;-76
2021/04/19 03:02:51;;;;;;;11.30;10.18;;;10.00;99.90;;;;;;5066313;28;20022;-76
2021/04/19 03:05:19;;;;;;;9.73;8.63;;;10.10;99.90;;;;;;5070086;28;20029;-75
2021/04/19 03:07:55;;;;;;;10.18;9.10;;;10.10;99.90;;;;;;5050843;28;20043;-75
2021/04/19 03:10:23;;;;;;;10.95;9.85;;;10.10;99.90;;;;;;5055809;28;20491;-74
2021/04/19 03:12:55;;;;;;;10.88;9.88;;;10.20;99.90;;;;;;5040581;28;20021;-75
2021/04/19 03:15:29;;;;;;;;;;;10.10;99.90;;;;;;5035474;28;20021;-75
2021/04/19 03:18:01;;;;;;;9.95;8.48;;;10.10;99.90;;;;;;5040187;28;20278;-75
2021/04/19 03:20:41;;;;;;;11.27;10.10;;;10.10;99.90;;;;;;5013609;28;20525;-75
2021/04/19 03:23:08;;;;;;;10.45;8.93;;;10.00;99.90;;;;;;5042722;28;20506;-74
2021/04/19 03:25:35;;;;;;;12.05;9.05;;;10.00;99.90;;;;;;5040469;28;20029;-73
2021/04/19 03:28:02;;;;;;;12.00;9.65;;;10.00;99.90;;;;;;5042505;28;20025;-75
2021/04/19 03:30:27;;;;;;;12.13;9.48;;;9.90;99.90;;;;;;5042674;28;20060;-74
2021/04/19 03:32:56;;;;;;;11.85;9.00;;;9.90;99.90;;;;;;5041269;28;20428;-74
2021/04/19 03:35:29;;;;;;;9.90;8.90;;;9.80;99.90;;;;;;5024148;28;20179;-74
2021/04/19 03:37:57;;;;;;;10.20;8.80;;;9.80;99.90;;;;;;5019931;28;20125;-74
2021/04/19 03:40:30;;;;;;;11.50;10.35;;;9.80;99.90;;;;;;5040544;28;20484;-74
2021/04/19 03:43:01;;;;;;;12.00;10.35;;;9.80;99.90;;;;;;5038598;28;20099;-75
2021/04/19 03:45:30;;;;;;;10.95;9.07;;;9.70;99.90;;;;;;5028774;28;20104;-74
2021/04/19 03:47:58;;;;;;;10.15;9.15;;;9.70;99.90;;;;;;5041768;28;20029;-74
2021/04/19 03:50:25;;;;;;;12.00;10.43;;;9.60;99.90;;;;;;4997846;28;20491;-76
2021/04/19 03:52:53;;;;;;;12.43;10.23;;;9.70;99.90;;;;;;5018125;28;20047;-76
2021/04/19 03:55:19;;;;;;;12.13;10.82;;;9.60;99.90;;;;;;5033224;28;20033;-74
2021/04/19 03:57:48;;;;;;;12.43;11.13;;;9.50;99.90;;;;;;5037215;28;20026;-76
2021/04/19 04:00:17;;;;;;;11.82;10.63;;;9.60;99.90;;;;;;5041816;28;20495;-75
2021/04/19 04:02:48;;;;;;;12.25;10.95;;;9.70;99.90;;;;;;5040417;28;20040;-76
2021/04/19 04:05:15;;;;;;;12.98;11.10;;;9.60;99.90;;;;;;5046559;28;20092;-75
2021/04/19 04:07:42;;;;;;;14.32;11.88;;;9.60;99.90;;;;;;5025953;28;20462;-75
2021/04/19 04:10:08;;;;;;;13.18;11.77;;;9.50;99.90;;;;;;5041836;28;20013;-75
2021/04/19 04:12:36;;;;;;;13.63;12.23;;;9.50;99.90;;;;;;5035509;28;20021;-76
2021/04/19 04:15:03;;;;;;;13.02;10.90;;;9.40;99.90;;;;;;5044728;28;20029;-76
2021/04/19 04:17:29;;;;;;;15.02;10.48;;;9.30;99.90;;;;;;5039108;28;20033;-75
2021/04/19 04:19:55;;;;;;;12.85;11.57;;;9.30;99.90;;;;;;5019508;28;20565;-75
2021/04/19 04:22:22;;;;;;;12.75;10.63;;;9.20;99.90;;;;;;5040609;28;20045;-75
2021/04/19 04:24:49;;;;;;;14.90;12.65;;;9.30;99.90;;;;;;5028385;28;20029;-75
2021/04/19 04:27:15;;;;;;;12.38;11.15;;;9.30;99.90;;;;;;5023328;28;20072;-75
2021/04/19 04:29:41;;;;;;;13.88;12.43;;;9.30;99.90;;;;;;5041202;28;20030;-75
2021/04/19 04:32:08;;;;;;;11.90;10.57;;;9.20;99.90;;;;;;5040809;28;20109;-75
2021/04/19 04:34:34;;;;;;;13.40;11.52;;;9.20;99.90;;;;;;5039442;28;20029;-75
2021/04/19 04:37:00;;;;;;;12.93;11.68;;;9.20;99.90;;;;;;5030517;28;20482;-74
2021/04/19 04:39:26;;;;;;;15.75;13.18;;;9.20;99.90;;;;;;5034266;28;20029;-76
2021/04/19 04:41:52;;;;;;;16.10;12.68;;;9.20;99.90;;;;;;5033178;28;20365;-75
2021/04/19 04:44:24;;;;;;;15.00;12.32;;;9.20;99.90;;;;;;5032698;28;20029;-75
2021/04/19 04:47:00;;;;;;;;;;;9.20;99.90;;;;;;5033259;28;20100;-75
2021/04/19 04:49:32;;;;;;;12.65;11.40;;;9.30;99.90;;;;;;5032647;28;20383;-75
2021/04/19 04:51:58;;;;;;;;;;;9.20;99.90;;;;;;5033424;28;20022;-74
2021/04/19 04:54:24;;;;;;;15.38;12.60;;;9.20;99.90;;;;;;5014885;28;19913;-77
2021/04/19 04:56:57;;;;;;;13.73;12.05;;;9.10;99.90;;;;;;5030162;28;20022;-76
2021/04/19 04:59:24;;;;;;;17.52;12.80;;;9.20;99.90;;;;;;5046391;28;20021;-74
2021/04/19 05:01:50;;;;;;;13.70;11.77;;;9.20;99.90;;;;;;5049935;28;20036;-75
2021/04/19 05:04:17;;;;;;;13.93;12.35;;;9.20;99.90;;;;;;5036521;28;20033;-75
2021/04/19 05:06:44;;;;;;;13.45;12.02;;;9.20;99.90;;;;;;5014601;28;20041;-76
2021/04/19 05:09:10;;;;;;;17.92;13.07;;;9.20;99.90;;;;;;5032394;28;20029;-77
2021/04/19 05:11:42;;;;;;;14.52;12.27;;;9.30;99.90;;;;;;5032565;28;20037;-76
2021/04/19 05:14:09;;;;;;;15.07;13.02;;;9.20;99.90;;;;;;5032240;28;20017;-75
2021/04/19 05:16:35;;;;;;;16.48;13.48;;;9.30;99.90;;;;;;5033211;28;20022;-76
2021/04/19 05:19:03;;;;;;;14.27;12.75;;;9.30;99.90;;;;;;5032961;28;20137;-77
2021/04/19 05:21:29;;;;;;;14.70;12.77;;;9.40;99.90;;;;;;5016191;28;20541;-79
2021/04/19 05:23:56;;;;;;;13.88;12.13;;;9.50;99.90;;;;;;5016583;28;20036;-76
2021/04/19 05:26:22;;;;;;;13.27;11.88;;;9.60;99.90;;;;;;5035728;28;20069;-76
2021/04/19 05:28:48;;;;;;;15.30;13.07;;;9.70;99.90;;;;;;5032514;28;20071;-76
2021/04/19 05:31:15;;;;;;;12.95;11.68;;;9.70;99.90;;;;;;5014776;28;20029;-76
2021/04/19 05:33:40;;;;;;;13.88;12.40;;;9.70;99.90;;;;;;5032894;28;20021;-75
2021/04/19 05:36:11;;;;;;;13.43;12.02;;;9.80;99.90;;;;;;5033073;28;20097;-77
2021/04/19 05:38:41;;;;;;;13.30;11.32;;;9.80;99.90;;;;;;5034996;28;20399;-76
2021/04/19 05:41:07;;;;;;;21.23;16.50;;;9.80;99.90;;;;;;5013038;28;20090;-76
2021/04/19 05:43:34;;;;;;;13.93;11.90;;;9.90;99.90;;;;;;5014994;28;20523;-75
2021/04/19 05:46:01;;;;;;;13.95;11.82;;;10.00;99.90;;;;;;5032928;28;20040;-78
2021/04/19 05:48:27;;;;;;;13.00;11.60;;;10.00;99.90;;;;;;5032071;28;20039;-77
2021/04/19 05:50:57;;;;;;;14.77;13.07;;;10.10;99.90;;;;;;5013325;28;20026;-77
2021/04/19 05:53:24;;;;;;;13.68;12.27;;;10.30;99.90;;;;;;5013805;28;20489;-69
2021/04/19 05:55:54;;;;;;;15.20;12.48;;;10.40;99.90;;;;;;5030372;28;20017;-69
2021/04/19 05:58:23;;;;;;;13.93;12.43;;;10.40;99.90;;;;;;5025081;28;20109;-69
2021/04/19 06:00:52;;;;;;;15.27;12.20;;;10.50;99.90;;;;;;5011835;28;20033;-68
2021/04/19 06:03:25;;;;;;;12.48;11.23;;;10.60;99.90;;;;;;5030583;28;20084;-71
2021/04/19 06:05:57;;;;;;;12.63;11.32;;;10.50;99.90;;;;;;5030844;28;20032;-69
2021/04/19 06:08:53;;;;;;;14.80;11.38;;;10.30;99.90;;;;;;5027027;28;20025;-70
2021/04/19 06:11:23;;;;;;;15.32;12.55;;;10.30;99.90;;;;;;5012902;28;20029;-70
2021/04/19 06:13:50;;;;;;;12.02;10.75;;;10.40;99.90;;;;;;5030695;28;20075;-70
2021/04/19 06:16:18;;;;;;;12.57;11.27;;;10.40;99.90;;;;;;5030809;28;20084;-69
2021/04/19 06:18:45;;;;;;;13.55;11.68;;;10.50;99.90;;;;;;5030471;28;20474;-72
2021/04/19 06:21:12;;;;;;;12.40;10.85;;;10.50;99.90;;;;;;5029577;28;20033;-70
2021/04/19 06:23:40;;;;;;;12.75;11.45;;;10.70;99.90;;;;;;5027236;28;20441;-70
2021/04/19 06:26:09;;;;;;;12.48;10.73;;;10.80;99.90;;;;;;5030604;28;20076;-70
2021/04/19 06:28:35;;;;;;;13.95;10.18;;;11.00;99.90;;;;;;5030221;28;20029;-71
2021/04/19 06:31:03;;;;;;;12.27;10.63;;;11.10;99.90;;;;;;5030870;28;20112;-71
2021/04/19 06:33:30;;;;;;;12.10;10.68;;;11.20;99.90;;;;;;5030951;28;20026;-71
2021/04/19 06:35:56;;;;;;;11.45;10.35;;;11.30;99.90;;;;;;5032368;28;20036;-70
2021/04/19 06:38:22;;;;;;;12.63;9.60;;;11.50;99.90;;;;;;5031969;28;20018;-71
2021/04/19 06:40:48;;;;;;;13.60;10.27;;;11.40;99.90;;;;;;5030089;28;20503;-70
2021/04/19 06:43:14;;;;;;;11.68;8.43;;;11.40;99.90;;;;;;5012748;28;20053;-71
2021/04/19 06:45:41;;;;;;;10.88;9.25;;;11.50;99.90;;;;;;5030648;28;20030;-70
2021/04/19 06:48:09;;;;;;;11.02;9.93;;;11.50;99.90;;;;;;5030542;28;20486;-70
2021/04/19 06:50:37;;;;;;;10.93;9.02;;;11.70;99.90;;;;;;5030065;28;20021;-70
2021/04/19 06:53:07;;;;;;;13.18;10.55;;;12.00;99.90;;;;;;5012219;28;20022;-72
2021/04/19 06:55:36;;;;;;;10.55;8.85;;;12.30;99.90;;;;;;5014048;28;20086;-74
2021/04/19 06:58:03;;;;;;;8.80;7.80;;;12.40;99.90;;;;;;5010857;28;20051;-73
2021/04/19 07:00:31;;;;;;;9.98;7.78;;;12.40;99.90;;;;;;5012000;28;20033;-68
2021/04/19 07:03:01;;;;;;;8.93;6.80;;;12.30;99.90;;;;;;5029809;28;20017;-70
2021/04/19 07:05:36;;;;;;;7.93;7.15;;;12.30;99.90;;;;;;5030633;28;20030;-70
2021/04/19 07:08:08;;;;;;;9.38;8.30;;;12.40;99.90;;;;;;5011860;28;20024;-71
2021/04/19 07:10:35;;;;;;;7.20;6.45;;;12.50;99.90;;;;;;5035579;28;20113;-69
2021/04/19 07:13:09;;;;;;;9.48;8.00;;;12.50;99.90;;;;;;5030011;28;20036;-72
2021/04/19 07:15:40;;;;;;;8.85;6.40;;;12.40;99.90;;;;;;5015906;28;20025;-70
2021/04/19 07:18:06;;;;;;;7.63;6.90;;;12.50;99.90;;;;;;5030850;28;20017;-69
2021/04/19 07:20:33;;;;;;;6.90;6.03;;;12.50;99.90;;;;;;5012250;28;20041;-70
2021/04/19 07:23:00;;;;;;;9.43;6.72;;;12.80;99.90;;;;;;5037841;28;20022;-70
2021/04/19 07:25:27;;;;;;;12.52;7.38;;;12.80;99.90;;;;;;5013207;28;20025;-71
2021/04/19 07:27:54;;;;;;;8.35;6.78;;;12.90;99.90;;;;;;5030157;28;20053;-70
2021/04/19 07:30:20;;;;;;;8.63;6.22;;;13.10;99.90;;;;;;5030354;28;20025;-70
2021/04/19 07:32:46;;;;;;;14.10;7.20;;;13.00;99.90;;;;;;5030212;28;20418;-71
2021/04/19 07:35:13;;;;;;;7.97;6.63;;;13.30;99.90;;;;;;5030406;28;20029;-71
2021/04/19 07:37:53;;;;;;;6.90;6.20;;;13.50;99.90;;;;;;5031057;28;20025;-70
2021/04/19 07:40:34;;;;;;;7.03;5.55;;;13.20;99.90;;;;;;5016256;28;20037;-72
2021/04/19 07:43:18;;;;;;;8.38;6.60;;;13.20;99.90;;;;;;5033925;28;20072;-71
2021/04/19 07:46:05;;;;;;;5.80;5.18;;;13.40;99.90;;;;;;5034123;28;20314;-70
2021/04/19 07:48:33;;;;;;;6.45;5.75;;;13.50;99.90;;;;;;5034265;28;20026;-70
2021/04/19 07:51:19;;;;;;;7.13;6.53;;;13.60;99.90;;;;;;5034141;28;20387;-71
2021/04/19 07:53:45;;;;;;;6.78;6.07;;;13.90;99.90;;;;;;5015426;28;20399;-70
2021/04/19 07:56:20;;;;;;;5.28;4.78;;;13.80;99.90;;;;;;5033387;28;20090;-70
2021/04/19 07:58:46;;;;;;;4.88;4.47;;;13.80;99.90;;;;;;5033512;28;20025;-70
2021/04/19 08:01:11;;;;;;;4.80;4.40;;;14.00;99.90;;;;;;5033477;28;20498;-71
2021/04/19 08:03:38;;;;;;;4.65;3.72;;;13.90;99.90;;;;;;5015536;28;20029;-71
2021/04/19 08:06:21;;;;;;;4.57;4.18;;;13.60;99.90;;;;;;5034485;28;20105;-72
2021/04/19 08:08:48;;;;;;;4.35;3.95;;;13.40;99.90;;;;;;5033309;28;20079;-71
2021/04/19 08:11:18;;;;;;;5.68;3.97;;;13.40;99.90;;;;;;5033128;28;20033;-71
2021/04/19 08:13:45;;;;;;;5.15;4.65;;;13.40;99.90;;;;;;5033721;28;20025;-72
2021/04/19 08:16:19;;;;;;;7.65;3.78;;;13.60;99.90;;;;;;5033665;28;20081;-72
2021/04/19 08:18:46;;;;;;;4.43;3.97;;;13.70;99.90;;;;;;5032831;28;20502;-71
2021/04/19 08:21:12;;;;;;;4.75;4.35;;;13.80;99.90;;;;;;5032717;28;20387;-71
2021/04/19 08:23:44;;;;;;;4.03;3.60;;;14.10;99.90;;;;;;5032896;28;20119;-70
2021/04/19 08:26:12;;;;;;;6.10;5.20;;;14.10;99.90;;;;;;5015008;28;20057;-71
2021/04/19 08:28:46;;;;;;;5.97;4.65;;;14.00;99.90;;;;;;5032661;28;20305;-72
2021/04/19 08:31:13;;;;;;;5.07;4.57;;;14.00;99.90;;;;;;5032823;28;20021;-71
2021/04/19 08:33:41;;;;;;;8.65;6.05;;;14.10;99.90;;;;;;5033525;28;20387;-70
2021/04/19 08:36:12;;;;;;;8.98;6.60;;;14.00;99.90;;;;;;5034593;28;20029;-71
2021/04/19 08:38:39;;;;;;;7.68;5.60;;;14.10;99.90;;;;;;5033029;28;20021;-71
2021/04/19 08:41:05;;;;;;;7.28;6.65;;;14.30;99.90;;;;;;5032734;28;20725;-71
2021/04/19 08:43:34;;;;;;;8.30;7.20;;;14.40;99.90;;;;;;5032428;28;20129;-73
2021/04/19 08:46:04;;;;;;;7.68;6.97;;;14.20;99.90;;;;;;5032963;28;20024;-72
2021/04/19 08:48:31;;;;;;;14.25;7.40;;;13.90;99.90;;;;;;5014479;28;20070;-71
2021/04/19 08:51:01;;;;;;;9.68;8.45;;;14.00;99.90;;;;;;5031890;28;20529;-73
2021/04/19 08:53:28;;;;;;;11.80;8.88;;;13.90;99.90;;;;;;5014837;28;20072;-72
2021/04/19 08:55:54;;;;;;;12.40;9.68;;;13.70;99.90;;;;;;5033166;28;20030;-71
2021/04/19 08:58:20;;;;;;;13.95;9.18;;;13.40;99.90;;;;;;5032142;28;20053;-72
2021/04/19 09:00:52;;;;;;;11.10;8.43;;;13.40;99.90;;;;;;5032285;28;20399;-70
2021/04/19 09:03:19;;;;;;;10.57;8.50;;;13.20;99.90;;;;;;5032279;28;20030;-70
2021/04/19 09:05:46;;;;;;;9.32;8.07;;;13.00;99.90;;;;;;5032258;28;20422;-71
2021/04/19 09:08:15;;;;;;;8.48;7.60;;;13.00;99.90;;;;;;5032638;28;20029;-71
2021/04/19 09:10:46;;;;;;;7.47;6.72;;;13.10;99.90;;;;;;5032171;28;20540;-71
2021/04/19 09:13:32;;;;;;;9.90;8.50;;;12.90;99.90;;;;;;5032017;28;20030;-72
2021/04/19 09:16:18;;;;;;;8.98;7.70;;;12.80;99.90;;;;;;5031920;28;20113;-72
2021/04/19 09:18:55;;;;;;;9.23;7.10;;;12.60;99.90;;;;;;5032238;28;20091;-70
2021/04/19 09:21:38;;;;;;;9.32;8.43;;;12.50;99.90;;;;;;5031998;28;20025;-68
2021/04/19 09:24:06;;;;;;;8.25;7.45;;;12.50;99.90;;;;;;5033258;28;20443;-70
2021/04/19 09:26:52;;;;;;;9.77;8.20;;;12.60;99.90;;;;;;5032063;28;20017;-71
2021/04/19 09:29:27;;;;;;;9.68;8.75;;;12.60;99.90;;;;;;5032887;28;20026;-70
2021/04/19 09:32:03;;;;;;;9.18;8.30;;;12.60;99.90;;;;;;5031885;28;20112;-70
2021/04/19 09:34:39;;;;;;;10.18;7.80;;;12.50;99.90;;;;;;5024957;28;20435;-71
2021/04/19 09:37:06;;;;;;;8.88;8.18;;;12.40;99.90;;;;;;5014186;28;20018;-71
2021/04/19 09:39:46;;;;;;;9.18;8.38;;;12.50;99.90;;;;;;5031925;28;20111;-69
2021/04/19 09:42:12;;;;;;;12.00;8.25;;;12.60;99.90;;;;;;5031935;28;20026;-72
2021/04/19 09:44:53;;;;;;;8.57;7.68;;;12.80;99.90;;;;;;5034125;28;20025;-70
2021/04/19 09:47:50;;;;;;;9.50;8.60;;;12.70;99.90;;;;;;5014234;28;20088;-72
2021/04/19 09:50:22;;;;;;;10.98;9.70;;;12.40;99.90;;;;;;5030816;28;20034;-71
2021/04/19 09:52:52;;;;;;;10.68;8.30;;;12.30;99.90;;;;;;5031666;28;20296;-73
2021/04/19 09:55:21;;;;;;;8.98;8.05;;;12.30;99.90;;;;;;5031743;28;20034;-73
2021/04/19 09:57:48;;;;;;;9.75;7.93;;;12.30;99.90;;;;;;5031561;28;20018;-70
2021/04/19 10:00:16;;;;;;;8.23;7.43;;;12.30;99.90;;;;;;5030940;28;20100;-68
2021/04/19 10:02:43;;;;;;;8.48;7.68;;;12.30;99.90;;;;;;5030967;28;20036;-74
2021/04/19 10:05:11;;;;;;;9.10;8.20;;;12.40;99.90;;;;;;5031965;28;20062;-73
2021/04/19 10:07:41;;;;;;;12.50;8.07;;;12.40;99.90;;;;;;5031437;28;20173;-71
2021/04/19 10:10:09;;;;;;;10.70;8.50;;;12.40;99.90;;;;;;5031740;28;20022;-70
2021/04/19 10:12:46;;;;;;;9.75;8.75;;;12.40;99.90;;;;;;5031100;28;20025;-71
2021/04/19 10:15:20;;;;;;;11.68;9.45;;;12.40;99.90;;;;;;5031097;28;20487;-69
2021/04/19 10:17:46;;;;;;;9.70;8.70;;;12.50;99.90;;;;;;5030764;28;20067;-70
2021/04/19 10:20:21;;;;;;;9.40;8.50;;;12.60;99.90;;;;;;5031022;28;20097;-71
2021/04/19 10:23:05;;;;;;;9.00;8.20;;;12.90;99.90;;;;;;5031127;28;20532;-70
2021/04/19 10:25:33;;;;;;;9.63;8.73;;;13.00;99.90;;;;;;5032338;28;20022;-70
2021/04/19 10:27:58;;;;;;;9.43;8.35;;;13.20;99.90;;;;;;5033971;28;20021;-70
2021/04/19 10:30:25;;;;;;;11.23;10.23;;;13.50;99.90;;;;;;5015122;28;20462;-70
2021/04/19 10:32:51;;;;;;;10.85;9.88;;;13.80;99.90;;;;;;5032916;28;20025;-70
2021/04/19 10:35:42;;;;;;;13.82;9.75;;;14.10;99.90;;;;;;5033009;28;20026;-70
2021/04/19 10:38:08;;;;;;;10.63;9.65;;;14.40;99.90;;;;;;5007477;28;20083;-70
2021/04/19 10:40:34;;;;;;;12.25;10.63;;;14.40;99.90;;;;;;5030439;28;20018;-71
2021/04/19 10:43:11;;;;;;;10.98;9.88;;;14.50;99.90;;;;;;5030885;28;20476;-71
2021/04/19 10:45:39;;;;;;;11.52;10.27;;;14.60;99.90;;;;;;5030380;28;20044;-69
2021/04/19 10:48:22;;;;;;;11.55;10.45;;;14.70;99.90;;;;;;5030734;28;20510;-71
2021/04/19 10:50:52;;;;;;;9.43;8.52;;;14.90;99.90;;;;;;5030977;28;20217;-70
2021/04/19 10:53:41;;;;;;;10.13;9.20;;;14.90;99.90;;;;;;5030237;28;20045;-70
2021/04/19 10:56:08;;;;;;;10.23;9.23;;;14.90;99.90;;;;;;5030109;28;20033;-72
2021/04/19 10:58:37;;;;;;;11.85;10.57;;;15.00;99.90;;;;;;5033519;28;20025;-71
2021/04/19 11:01:04;;;;;;;13.13;11.57;;;15.10;99.90;;;;;;5030764;28;20029;-72
2021/04/19 11:03:36;;;;;;;12.85;11.65;;;15.10;99.90;;;;;;5030788;28;20017;-72
2021/04/19 11:06:10;;;;;;;14.50;13.20;;;15.00;99.90;;;;;;5013714;28;20038;-72
2021/04/19 11:08:47;;;;;;;16.90;15.07;;;14.90;99.90;;;;;;5012410;28;20036;-72
2021/04/19 11:11:37;;;;;;;16.83;15.02;;;14.90;99.90;;;;;;5031150;28;20035;-71
2021/04/19 11:14:12;;;;;;;17.75;13.40;;;14.90;99.90;;;;;;5014935;28;20436;-70
2021/04/19 11:16:51;;;;;;;14.38;13.05;;;15.20;99.90;;;;;;5027597;28;20080;-71
2021/04/19 11:19:42;;;;;;;14.23;12.95;;;15.20;99.90;;;;;;5034310;28;20025;-72
2021/04/19 11:22:34;;;;;;;13.80;12.50;;;15.30;99.90;;;;;;5016077;28;20021;-71
2021/04/19 11:25:26;;;;;;;15.05;12.60;;;15.30;99.90;;;;;;5034083;28;20423;-72
2021/04/19 11:28:13;;;;;;;11.73;10.52;;;15.40;99.90;;;;;;5033552;28;20056;-71
2021/04/19 11:30:39;;;;;;;12.95;11.65;;;14.90;99.90;;;;;;5028475;28;20646;-70
2021/04/19 11:33:09;;;;;;;10.68;9.68;;;14.80;99.90;;;;;;5032189;28;20045;-71
2021/04/19 11:35:37;;;;;;;15.70;11.10;;;14.60;99.90;;;;;;5033893;28;20056;-70
2021/04/19 11:38:05;;;;;;;14.73;13.05;;;14.50;99.90;;;;;;5033730;28;20060;-71
2021/04/19 11:40:39;;;;;;;16.13;12.77;;;14.20;99.90;;;;;;5032970;28;20437;-71
2021/04/19 11:43:34;;;;;;;14.35;13.02;;;14.00;99.90;;;;;;5032856;28;20567;-72
2021/04/19 11:46:14;;;;;;;18.60;14.73;;;14.20;99.90;;;;;;5016380;28;20499;-71
2021/04/19 11:48:46;;;;;;;16.33;14.63;;;14.40;99.90;;;;;;5015690;28;20112;-70
2021/04/19 11:51:14;;;;;;;;;;;14.60;99.90;;;;;;5015429;28;20026;-71
2021/04/19 11:53:42;;;;;;;15.23;13.82;;;14.70;99.90;;;;;;5015450;28;19916;-71
2021/04/19 11:56:08;;;;;;;17.10;15.40;;;14.60;99.90;;;;;;5033421;28;20026;-72
2021/04/19 11:58:37;;;;;;;15.18;13.70;;;14.70;99.90;;;;;;5033362;28;20018;-72
2021/04/19 12:01:04;;;;;;;14.50;13.10;;;14.70;99.90;;;;;;5032636;28;20514;-71
2021/04/19 12:03:30;;;;;;;14.65;13.30;;;14.70;99.90;;;;;;5031488;28;20036;-72
2021/04/19 12:05:56;;;;;;;22.00;13.40;;;14.80;99.90;;;;;;5033162;28;20033;-70
2021/04/19 12:08:22;;;;;;;17.05;14.65;;;14.80;99.90;;;;;;5034840;28;20032;-74
2021/04/19 12:10:48;;;;;;;15.27;13.68;;;14.90;99.90;;;;;;5032528;28;20034;-70
2021/04/19 12:13:15;;;;;;;17.08;15.48;;;15.10;99.90;;;;;;5033000;28;20360;-71
2021/04/19 12:15:41;;;;;;;14.23;12.88;;;15.10;99.90;;;;;;5033423;28;20017;-70
2021/04/19 12:18:08;;;;;;;15.38;13.77;;;15.00;99.90;;;;;;5033250;28;20025;-73
2021/04/19 12:20:34;;;;;;;15.65;14.23;;;15.10;99.90;;;;;;5032545;28;20025;-72
2021/04/19 12:23:00;;;;;;;16.50;13.95;;;15.20;99.90;;;;;;5032970;28;20025;-71
2021/04/19 12:25:26;;;;;;;17.25;15.77;;;15.20;99.90;;;;;;5032868;28;20029;-71
2021/04/19 12:27:52;;;;;;;12.60;11.30;;;15.30;99.90;;;;;;5029779;28;20028;-71
2021/04/19 12:30:18;;;;;;;10.23;9.25;;;15.50;99.90;;;;;;5024744;28;20029;-70
2021/04/19 12:32:43;;;;;;;8.35;7.65;;;15.50;99.90;;;;;;5033617;28;20033;-70
2021/04/19 12:35:10;;;;;;;20.38;9.65;;;15.20;99.90;;;;;;5032903;28;20112;-72
2021/04/19 12:37:36;;;;;;;15.38;9.73;;;14.90;99.90;;;;;;5032739;28;20239;-72
2021/04/19 12:40:04;;;;;;;10.80;9.80;;;14.60;99.90;;;;;;5032312;28;20483;-73
2021/04/19 12:42:30;;;;;;;11.88;10.77;;;14.10;99.90;;;;;;5032148;28;20030;-74
2021/04/19 12:44:56;;;;;;;13.27;11.50;;;13.90;99.90;;;;;;5032395;28;20037;-73
2021/04/19 12:47:21;;;;;;;13.40;10.60;;;13.80;99.90;;;;;;5040785;28;20017;-72
2021/04/19 12:49:47;;;;;;;11.60;10.27;;;13.80;99.90;;;;;;5050294;28;20033;-74
2021/04/19 12:52:13;;;;;;;10.18;9.27;;;13.90;99.90;;;;;;5035367;28;20026;-72